Time;durP1;ratioP1;P1;durP2;ratioP2;P2;SDS_P1;SDS_P2;PMS_P1;PMS_P2;Temp;Humidity;BMP_temperature;BMP_pressure;BME280_temperature;BME280_humidity;BME280_pressure;Samples;Min_cycle;Max_cycle;Signal;HPM_P1;HPM_P2
2021/12/16 00:11:27;;;;;;;36.87;22.87;;;9.70;99.90;;;;;;4985486;28;20180;-64
2021/12/16 00:31:03;;;;;;;42.47;26.00;;;9.50;99.90;;;;;;5014190;28;20556;-64
2021/12/16 00:35:37;;;;;;;41.10;23.37;;;9.50;99.90;;;;;;5013427;28;20180;-65
2021/12/16 00:38:04;;;;;;;44.53;25.03;;;9.50;99.90;;;;;;5013730;28;20206;-64
2021/12/16 00:40:30;;;;;;;41.80;24.53;;;9.50;99.90;;;;;;5054189;22;20226;-66
2021/12/16 00:43:01;;;;;;;39.40;22.67;;;9.50;99.90;;;;;;5032993;28;20550;-66
2021/12/16 00:46:08;;;;;;;43.30;22.17;;;9.50;99.90;;;;;;5033199;28;20217;-65
2021/12/16 00:56:08;;;;;;;45.00;23.57;;;9.50;99.90;;;;;;5033604;28;20190;-66
2021/12/16 00:58:42;;;;;;;39.77;23.90;;;9.50;99.90;;;;;;5033242;28;20203;-65
2021/12/16 01:01:29;;;;;;;50.10;24.43;;;9.50;99.90;;;;;;5032872;28;20184;-65
2021/12/16 01:09:19;;;;;;;44.43;23.10;;;9.50;99.90;;;;;;5033003;28;20668;-66
2021/12/16 01:47:36;;;;;;;42.77;24.73;;;9.60;99.90;;;;;;5032252;28;20182;-66
2021/12/16 01:50:09;;;;;;;47.90;24.33;;;9.60;99.90;;;;;;5031761;28;20290;-65
2021/12/16 01:53:02;;;;;;;46.70;24.97;;;9.60;99.90;;;;;;5031648;28;20302;-66
2021/12/16 01:55:36;;;;;;;36.03;22.77;;;9.60;99.90;;;;;;5012233;28;20191;-65
2021/12/16 01:58:37;;;;;;;38.60;23.23;;;9.60;99.90;;;;;;5013401;28;20547;-65
2021/12/16 02:01:28;;;;;;;40.60;23.87;;;9.60;99.90;;;;;;5031881;28;20274;-66
2021/12/16 02:04:15;;;;;;;44.73;23.87;;;9.60;99.90;;;;;;5031340;28;20215;-66
2021/12/16 02:09:32;;;;;;;43.43;23.53;;;9.60;99.90;;;;;;5031831;28;20200;-64
2021/12/16 02:38:48;;;;;;;45.50;24.07;;;9.50;99.90;;;;;;5011553;28;20643;-65
2021/12/16 02:41:15;;;;;;;49.60;25.47;;;9.50;99.90;;;;;;5024677;28;20187;-66
2021/12/16 02:49:03;;;;;;;47.87;23.23;;;9.50;99.90;;;;;;5031332;28;20210;-66
2021/12/16 02:51:29;;;;;;;47.70;24.43;;;9.50;99.90;;;;;;5031737;28;20187;-66
2021/12/16 02:53:59;;;;;;;43.20;24.97;;;9.50;99.90;;;;;;5035360;28;20300;-66
2021/12/16 02:56:25;;;;;;;41.47;23.33;;;9.50;99.90;;;;;;5035113;28;20253;-66
2021/12/16 02:58:53;;;;;;;49.77;26.40;;;9.50;99.90;;;;;;5035487;28;20202;-66
2021/12/16 03:01:26;;;;;;;48.97;25.90;;;9.50;99.90;;;;;;5035076;28;20592;-66
2021/12/16 03:03:53;;;;;;;44.83;23.90;;;9.50;99.90;;;;;;5034963;28;20207;-66
2021/12/16 03:06:19;;;;;;;45.23;23.37;;;9.50;99.90;;;;;;5035128;28;20172;-67
2021/12/16 03:08:46;;;;;;;45.33;23.80;;;9.50;99.90;;;;;;5035091;28;20202;-65
2021/12/16 03:11:22;;;;;;;46.67;25.37;;;9.50;99.90;;;;;;5034835;28;20182;-66
2021/12/16 03:16:26;;;;;;;49.90;25.90;;;9.50;99.90;;;;;;5034815;28;20171;-65
2021/12/16 03:19:18;;;;;;;44.97;23.70;;;9.50;99.90;;;;;;5034997;28;20191;-66
2021/12/16 03:21:49;;;;;;;47.07;23.20;;;9.40;99.90;;;;;;5034558;28;20574;-66
2021/12/16 03:34:55;;;;;;;39.97;25.07;;;9.50;99.90;;;;;;5035014;28;20206;-66
2021/12/16 03:37:24;;;;;;;48.87;24.03;;;9.50;99.90;;;;;;5034697;28;20191;-66
2021/12/16 03:39:52;;;;;;;40.33;25.47;;;9.50;99.90;;;;;;5034467;28;20210;-65
2021/12/16 03:42:27;;;;;;;49.50;24.67;;;9.40;99.90;;;;;;5034499;28;20175;-66
2021/12/16 03:44:59;;;;;;;45.53;24.27;;;9.30;99.90;;;;;;5034561;28;20214;-65
2021/12/16 03:47:54;;;;;;;40.43;24.90;;;9.30;99.90;;;;;;5034229;28;20229;-66
2021/12/16 03:50:21;;;;;;;48.03;25.43;;;9.30;99.90;;;;;;5033847;28;20211;-65
2021/12/16 03:52:51;;;;;;;44.97;24.17;;;9.30;99.90;;;;;;5033809;28;20176;-66
2021/12/16 03:55:19;;;;;;;37.37;24.53;;;9.20;99.90;;;;;;5034453;28;20182;-66
2021/12/16 03:57:45;;;;;;;40.67;23.57;;;9.10;99.90;;;;;;5033876;28;20253;-66
2021/12/16 04:00:16;;;;;;;47.03;24.23;;;9.10;99.90;;;;;;5034291;28;20253;-66
2021/12/16 04:02:41;;;;;;;42.37;23.77;;;9.10;99.90;;;;;;5033041;28;20571;-65
2021/12/16 04:05:09;;;;;;;48.90;24.63;;;9.00;99.90;;;;;;5034210;28;20321;-66
2021/12/16 04:07:36;;;;;;;42.83;24.77;;;9.00;99.90;;;;;;5033575;28;20207;-66
2021/12/16 04:10:07;;;;;;;43.50;24.23;;;9.00;99.90;;;;;;5034267;28;20187;-64
2021/12/16 04:12:33;;;;;;;49.97;25.20;;;9.00;99.90;;;;;;5033509;28;20199;-66
2021/12/16 04:15:02;;;;;;;46.13;24.00;;;9.00;99.90;;;;;;5034026;28;20206;-66
2021/12/16 04:17:30;;;;;;;40.10;22.37;;;9.00;99.90;;;;;;5033621;28;20703;-66
2021/12/16 04:19:56;;;;;;;44.00;24.07;;;9.00;99.90;;;;;;5034003;28;20196;-66
2021/12/16 04:22:30;;;;;;;44.67;24.80;;;9.10;99.90;;;;;;5033374;28;20219;-65
2021/12/16 04:24:58;;;;;;;50.07;25.43;;;9.10;99.90;;;;;;5033851;28;20237;-66
2021/12/16 04:27:24;;;;;;;50.27;25.83;;;9.10;99.90;;;;;;5033627;28;20274;-66
2021/12/16 04:29:50;;;;;;;44.07;24.47;;;9.10;99.90;;;;;;5033444;28;20226;-66
2021/12/16 04:32:17;;;;;;;44.47;25.10;;;9.00;99.90;;;;;;5033489;28;20549;-65
2021/12/16 04:34:43;;;;;;;44.60;26.47;;;9.00;99.90;;;;;;5033484;28;20183;-64
2021/12/16 04:37:10;;;;;;;43.10;24.23;;;9.00;99.90;;;;;;5033781;28;20180;-66
2021/12/16 04:39:38;;;;;;;48.37;25.47;;;9.00;99.90;;;;;;5032895;28;20215;-66
2021/12/16 04:42:05;;;;;;;53.70;25.90;;;8.90;99.90;;;;;;5033362;28;20317;-65
2021/12/16 04:44:32;;;;;;;46.27;25.57;;;8.90;99.90;;;;;;5032992;28;20253;-64
2021/12/16 04:47:00;;;;;;;47.40;25.53;;;8.90;99.90;;;;;;5033415;28;20182;-66
2021/12/16 04:49:27;;;;;;;44.33;23.53;;;8.90;99.90;;;;;;5033047;28;20266;-66
2021/12/16 04:51:55;;;;;;;45.23;25.83;;;8.90;99.90;;;;;;5033092;28;20182;-66
2021/12/16 04:54:24;;;;;;;48.37;26.27;;;8.80;99.90;;;;;;5032936;28;20215;-63
2021/12/16 04:56:50;;;;;;;46.43;25.53;;;8.90;99.90;;;;;;5033126;28;20274;-65
2021/12/16 04:59:18;;;;;;;45.17;24.40;;;8.80;99.90;;;;;;5033198;28;20708;-66
2021/12/16 05:01:49;;;;;;;47.20;25.67;;;8.80;99.90;;;;;;5032650;28;20639;-65
2021/12/16 05:04:15;;;;;;;45.47;23.23;;;8.80;99.90;;;;;;5031383;28;20211;-66
2021/12/16 05:06:41;;;;;;;49.97;26.40;;;8.80;99.90;;;;;;5032935;28;20199;-66
2021/12/16 05:09:08;;;;;;;47.30;25.57;;;8.80;99.90;;;;;;5032995;28;20598;-66
2021/12/16 05:11:35;;;;;;;48.07;25.77;;;8.80;99.90;;;;;;5032841;28;20167;-65
2021/12/16 05:14:03;;;;;;;47.83;25.50;;;8.70;99.90;;;;;;5031518;28;20183;-65
2021/12/16 05:16:29;;;;;;;41.97;25.50;;;8.60;99.90;;;;;;5032572;28;20222;-65
2021/12/16 05:18:56;;;;;;;45.73;24.83;;;8.50;99.90;;;;;;5032511;28;20677;-66
2021/12/16 05:21:46;;;;;;;47.47;26.00;;;8.50;99.90;;;;;;5032802;28;20195;-66
2021/12/16 05:24:16;;;;;;;50.07;24.87;;;8.50;99.90;;;;;;5032134;28;20321;-66
2021/12/16 05:26:42;;;;;;;50.83;25.50;;;8.40;99.90;;;;;;5032846;28;20621;-66
2021/12/16 05:29:07;;;;;;;47.47;25.23;;;8.40;99.90;;;;;;5032100;28;20278;-66
2021/12/16 05:31:33;;;;;;;49.93;25.43;;;8.40;99.90;;;;;;5031971;28;20175;-66
2021/12/16 05:34:01;;;;;;;44.87;24.33;;;8.30;99.90;;;;;;5032080;28;20179;-65
2021/12/16 05:36:27;;;;;;;47.50;25.83;;;8.30;99.90;;;;;;5031971;28;20574;-65
2021/12/16 05:38:53;;;;;;;48.13;25.27;;;8.20;99.90;;;;;;5032193;28;20229;-66
2021/12/16 05:41:21;;;;;;;45.70;26.13;;;8.10;99.90;;;;;;5032210;28;20273;-65
2021/12/16 05:43:48;;;;;;;51.37;24.07;;;8.10;99.90;;;;;;5031649;28;20203;-65
2021/12/16 05:46:15;;;;;;;44.10;26.03;;;8.00;99.90;;;;;;5030051;28;20691;-66
2021/12/16 05:48:43;;;;;;;49.07;22.93;;;8.00;99.90;;;;;;5012237;28;20172;-65
2021/12/16 05:51:15;;;;;;;40.00;23.97;;;7.90;99.90;;;;;;5012421;28;20172;-65
2021/12/16 05:53:46;;;;;;;44.43;24.50;;;7.80;99.90;;;;;;5027346;28;20633;-65
2021/12/16 05:56:12;;;;;;;42.87;24.53;;;7.70;99.90;;;;;;5031866;28;20171;-66
2021/12/16 05:58:38;;;;;;;46.97;24.90;;;7.70;99.90;;;;;;5031840;28;20175;-65
2021/12/16 06:01:14;;;;;;;47.80;24.17;;;7.60;99.90;;;;;;5031336;28;20171;-66
2021/12/16 06:03:40;;;;;;;47.17;24.30;;;7.50;99.90;;;;;;5031579;28;20187;-66
2021/12/16 06:06:06;;;;;;;50.80;23.80;;;7.40;99.90;;;;;;5031751;28;20183;-66
2021/12/16 06:08:33;;;;;;;43.63;23.37;;;7.40;99.90;;;;;;5031762;28;20195;-65
2021/12/16 06:13:31;;;;;;;49.93;25.53;;;7.30;99.90;;;;;;5031903;28;20651;-66
2021/12/16 06:22:22;;;;;;;46.50;26.10;;;7.30;99.90;;;;;;5031647;28;20195;-66
2021/12/16 06:29:50;;;;;;;42.77;22.33;;;7.10;99.90;;;;;;5030486;28;20204;-65
2021/12/16 06:32:16;;;;;;;43.27;24.13;;;7.00;99.90;;;;;;5031382;28;20178;-66
2021/12/16 06:34:43;;;;;;;38.07;22.30;;;7.00;99.90;;;;;;5031461;28;20182;-66
2021/12/16 06:37:09;;;;;;;34.33;22.33;;;6.90;99.90;;;;;;5031586;28;20175;-66
2021/12/16 06:39:35;;;;;;;47.73;25.40;;;6.90;99.90;;;;;;5073277;22;20232;-64
2021/12/16 06:42:05;;;;;;;38.47;22.07;;;6.90;99.90;;;;;;5013107;28;20179;-64
2021/12/16 06:44:38;;;;;;;42.17;23.47;;;6.90;99.90;;;;;;5010104;28;20199;-64
2021/12/16 06:47:09;;;;;;;39.43;23.90;;;6.90;99.90;;;;;;5011563;28;20210;-64
2021/12/16 06:49:38;;;;;;;44.07;23.17;;;6.90;99.90;;;;;;5011451;28;20250;-64
2021/12/16 06:52:06;;;;;;;38.80;21.90;;;6.90;99.90;;;;;;5011181;28;20518;-63
2021/12/16 06:54:41;;;;;;;44.73;22.43;;;6.90;99.90;;;;;;5011523;28;20665;-64
2021/12/16 06:57:22;;;;;;;41.30;22.07;;;6.90;99.90;;;;;;5011398;28;20365;-64
2021/12/16 06:59:56;;;;;;;38.10;22.03;;;6.90;99.90;;;;;;5011726;28;20198;-64
2021/12/16 07:04:57;;;;;;;38.40;23.10;;;6.90;99.90;;;;;;5011703;28;20562;-64
2021/12/16 07:07:23;;;;;;;41.67;23.90;;;6.90;99.90;;;;;;5011288;28;20187;-64
2021/12/16 07:09:49;;;;;;;36.13;21.10;;;6.80;99.90;;;;;;5009592;28;20358;-64
2021/12/16 07:12:22;;;;;;;37.20;21.63;;;6.80;99.90;;;;;;5010874;28;20169;-65
2021/12/16 07:14:48;;;;;;;41.57;24.33;;;6.70;99.90;;;;;;5011381;28;20180;-64
2021/12/16 07:17:16;;;;;;;39.80;23.77;;;6.70;99.90;;;;;;5009801;28;20183;-64
2021/12/16 07:19:44;;;;;;;42.90;22.10;;;6.60;99.90;;;;;;5010775;28;20251;-64
2021/12/16 07:22:11;;;;;;;35.63;22.00;;;6.60;99.90;;;;;;5011046;28;20259;-65
2021/12/16 07:24:37;;;;;;;34.30;21.80;;;6.60;99.90;;;;;;4990194;28;20255;-64
2021/12/16 07:27:04;;;;;;;36.07;21.17;;;6.50;99.90;;;;;;4990612;28;20173;-63
2021/12/16 07:29:30;;;;;;;39.07;21.70;;;6.40;99.90;;;;;;5008551;28;20250;-62
2021/12/16 07:31:59;;;;;;;50.20;21.27;;;6.50;99.90;;;;;;5010888;28;20180;-64
2021/12/16 07:34:25;;;;;;;37.77;20.10;;;6.50;99.90;;;;;;5011182;28;20603;-64
2021/12/16 07:36:51;;;;;;;58.20;19.77;;;6.50;99.90;;;;;;5011379;28;20176;-64
2021/12/16 07:39:19;;;;;;;46.27;19.90;;;6.60;99.90;;;;;;5014671;28;20226;-64
2021/12/16 07:41:48;;;;;;;42.00;22.03;;;6.60;99.90;;;;;;5014254;28;20641;-64
2021/12/16 07:44:16;;;;;;;39.83;20.13;;;6.70;99.90;;;;;;5014778;28;20291;-65
2021/12/16 07:46:53;;;;;;;44.17;23.70;;;6.70;99.90;;;;;;5014331;28;20231;-63
2021/12/16 07:49:24;;;;;;;33.87;20.63;;;6.70;99.90;;;;;;5014696;28;20202;-64
2021/12/16 07:51:50;;;;;;;46.53;21.87;;;6.80;99.90;;;;;;5014276;28;20188;-61
2021/12/16 07:54:17;;;;;;;36.80;21.27;;;6.90;99.90;;;;;;5014312;28;20230;-63
2021/12/16 07:56:43;;;;;;;42.07;22.23;;;7.00;99.90;;;;;;5013984;28;20216;-64
2021/12/16 07:59:09;;;;;;;35.53;20.17;;;7.00;99.90;;;;;;5014464;28;20279;-64
2021/12/16 08:01:36;;;;;;;45.20;22.73;;;7.10;99.90;;;;;;5014027;28;20547;-64
2021/12/16 08:04:02;;;;;;;50.50;25.23;;;7.10;99.90;;;;;;5013925;28;20287;-64
2021/12/16 08:06:29;;;;;;;40.20;22.70;;;7.20;99.90;;;;;;5013885;28;20598;-64
2021/12/16 08:09:02;;;;;;;40.07;23.00;;;7.30;99.90;;;;;;5014202;28;20539;-64
2021/12/16 08:11:30;;;;;;;42.03;24.07;;;7.30;99.90;;;;;;5013982;28;20207;-64
2021/12/16 08:13:55;;;;;;;35.73;21.10;;;7.30;99.90;;;;;;5013576;28;20226;-64
2021/12/16 08:16:22;;;;;;;42.67;25.17;;;7.40;99.90;;;;;;5012909;28;20172;-64
2021/12/16 08:18:52;;;;;;;46.80;24.73;;;7.50;99.90;;;;;;5013198;28;20183;-64
2021/12/16 08:21:18;;;;;;;55.03;25.17;;;7.60;99.90;;;;;;5010662;28;20168;-64
2021/12/16 08:23:44;;;;;;;46.77;24.97;;;7.70;99.90;;;;;;5011438;28;20641;-64
2021/12/16 08:26:11;;;;;;;45.63;24.23;;;7.70;99.90;;;;;;5013416;28;20176;-63
2021/12/16 08:28:36;;;;;;;42.83;23.73;;;7.70;99.90;;;;;;5013458;28;20168;-63
2021/12/16 08:31:06;;;;;;;46.47;23.77;;;7.80;99.90;;;;;;5012065;28;20699;-64
2021/12/16 08:33:32;;;;;;;48.87;23.57;;;7.90;99.90;;;;;;5013579;28;20165;-64
2021/12/16 08:35:58;;;;;;;47.03;26.73;;;7.90;99.90;;;;;;5013739;28;20180;-65
2021/12/16 08:38:25;;;;;;;45.53;23.07;;;8.00;99.90;;;;;;5013782;28;20668;-64
2021/12/16 08:40:56;;;;;;;46.93;24.30;;;8.00;99.90;;;;;;5012834;28;20681;-63
2021/12/16 08:43:22;;;;;;;42.27;23.73;;;8.20;99.90;;;;;;5013478;28;20586;-63
2021/12/16 08:45:48;;;;;;;47.27;24.53;;;8.30;99.90;;;;;;5012837;28;20298;-64
2021/12/16 08:48:14;;;;;;;48.80;26.23;;;8.40;99.90;;;;;;5013213;28;20608;-63
2021/12/16 08:50:44;;;;;;;42.30;25.67;;;8.60;99.90;;;;;;5013181;28;20203;-64
2021/12/16 08:53:11;;;;;;;48.90;23.73;;;8.70;99.90;;;;;;5011720;28;20265;-64
2021/12/16 08:55:39;;;;;;;49.90;25.33;;;8.80;99.90;;;;;;5011752;28;20176;-65
2021/12/16 08:58:05;;;;;;;49.33;25.30;;;8.80;99.90;;;;;;5013348;28;20180;-65
2021/12/16 09:00:36;;;;;;;44.90;24.43;;;8.80;99.90;;;;;;5012848;28;20222;-65
2021/12/16 09:03:02;;;;;;;51.90;26.07;;;9.00;99.90;;;;;;5013030;28;20191;-65
2021/12/16 09:05:28;;;;;;;54.07;25.40;;;9.00;99.90;;;;;;5012926;28;20534;-64
2021/12/16 09:07:55;;;;;;;56.97;26.17;;;9.10;99.90;;;;;;5011579;28;20189;-65
2021/12/16 09:10:27;;;;;;;52.00;26.00;;;9.10;99.90;;;;;;5013342;28;20199;-65
2021/12/16 09:13:04;;;;;;;45.27;22.93;;;9.10;99.90;;;;;;5012541;28;20180;-64
2021/12/16 09:15:47;;;;;;;54.97;25.30;;;9.20;99.90;;;;;;5013026;28;20187;-64
2021/12/16 09:18:15;;;;;;;45.73;24.77;;;9.20;99.90;;;;;;5012815;28;20621;-64
2021/12/16 09:20:41;;;;;;;49.03;24.90;;;9.30;99.90;;;;;;5011497;28;20614;-64
2021/12/16 09:23:09;;;;;;;53.63;26.30;;;9.40;99.90;;;;;;5011002;28;20229;-64
2021/12/16 09:25:35;;;;;;;47.50;25.97;;;9.50;99.90;;;;;;4995051;28;20208;-64
2021/12/16 09:28:00;;;;;;;49.03;27.00;;;9.50;99.90;;;;;;5012361;28;20622;-64
2021/12/16 09:30:28;;;;;;;56.43;26.53;;;9.60;99.90;;;;;;5012503;28;20558;-64
2021/12/16 09:32:57;;;;;;;57.07;29.40;;;9.70;99.90;;;;;;4992635;28;20173;-64
2021/12/16 09:35:24;;;;;;;57.73;28.03;;;9.80;99.90;;;;;;4996321;28;20183;-64
2021/12/16 09:37:51;;;;;;;55.43;27.57;;;10.00;99.90;;;;;;5012058;28;20270;-64
2021/12/16 09:40:21;;;;;;;52.90;28.33;;;10.10;99.90;;;;;;5012078;28;20222;-64
2021/12/16 09:42:48;;;;;;;52.97;26.30;;;10.10;99.90;;;;;;5012090;28;20553;-64
2021/12/16 09:45:15;;;;;;;49.60;27.90;;;10.00;99.90;;;;;;5011894;28;20227;-65
2021/12/16 09:47:46;;;;;;;57.70;28.07;;;10.10;99.90;;;;;;5011819;28;20657;-65
2021/12/16 09:50:17;;;;;;;57.50;28.77;;;10.10;99.90;;;;;;5012677;28;20422;-64
2021/12/16 09:52:43;;;;;;;61.00;29.13;;;10.30;99.90;;;;;;5012242;28;20587;-64
2021/12/16 09:55:09;;;;;;;54.43;28.73;;;10.50;99.90;;;;;;5011247;28;20282;-64
2021/12/16 09:57:36;;;;;;;52.73;25.90;;;10.50;99.90;;;;;;5010910;28;20184;-64
2021/12/16 10:00:08;;;;;;;48.87;25.70;;;10.60;99.90;;;;;;5011391;28;20279;-63
2021/12/16 10:02:34;;;;;;;55.03;27.03;;;10.60;99.90;;;;;;5011981;28;20234;-63
2021/12/16 10:05:00;;;;;;;48.40;26.57;;;10.70;99.90;;;;;;5012231;28;20211;-63
2021/12/16 10:07:32;;;;;;;47.33;26.57;;;10.80;99.90;;;;;;5012102;28;20251;-64
2021/12/16 10:09:59;;;;;;;53.10;27.60;;;11.00;99.90;;;;;;5011953;28;20204;-64
2021/12/16 10:12:26;;;;;;;49.37;29.27;;;11.20;99.90;;;;;;5012085;28;20226;-65
2021/12/16 10:17:31;;;;;;;59.07;26.80;;;11.40;99.90;;;;;;5012154;28;20263;-63
2021/12/16 10:20:09;;;;;;;47.50;24.73;;;11.50;99.90;;;;;;5011822;28;20219;-64
2021/12/16 10:22:46;;;;;;;47.47;27.00;;;11.50;99.90;;;;;;5011451;28;20183;-64
2021/12/16 10:25:34;;;;;;;41.87;25.43;;;11.60;99.90;;;;;;5012069;28;20204;-64
2021/12/16 10:28:11;;;;;;;41.97;23.07;;;11.60;99.90;;;;;;5011834;28;20164;-64
2021/12/16 10:30:54;;;;;;;45.17;24.73;;;11.50;99.90;;;;;;5011665;28;20195;-64
2021/12/16 10:33:49;;;;;;;40.63;26.17;;;11.50;99.90;;;;;;5011630;28;20259;-64
2021/12/16 10:36:20;;;;;;;45.80;25.07;;;11.50;99.90;;;;;;5011844;28;20176;-64
2021/12/16 10:38:48;;;;;;;45.20;24.43;;;11.40;99.90;;;;;;5010401;28;20603;-64
2021/12/16 10:41:24;;;;;;;44.90;26.10;;;11.40;99.90;;;;;;5011782;28;20180;-64
2021/12/16 10:44:04;;;;;;;48.17;25.83;;;11.40;99.90;;;;;;5011011;28;20176;-64
2021/12/16 10:46:33;;;;;;;46.37;26.50;;;11.40;99.90;;;;;;5011439;28;20203;-64
2021/12/16 10:49:10;;;;;;;47.53;27.47;;;11.50;99.90;;;;;;5011452;28;20630;-63
2021/12/16 10:51:39;;;;;;;42.73;26.67;;;11.50;99.90;;;;;;5011460;28;20564;-65
2021/12/16 10:54:11;;;;;;;44.57;27.50;;;11.40;99.90;;;;;;5011188;28;20625;-64
2021/12/16 10:56:58;;;;;;;38.27;24.17;;;11.40;99.90;;;;;;5011385;28;20246;-65
2021/12/16 10:59:32;;;;;;;41.37;26.20;;;11.40;99.90;;;;;;5010200;28;20208;-64
2021/12/16 11:01:58;;;;;;;40.83;24.53;;;11.40;99.90;;;;;;5009641;28;20172;-65
2021/12/16 11:04:26;;;;;;;40.03;25.07;;;11.50;99.90;;;;;;5011187;28;20695;-64
2021/12/16 11:06:59;;;;;;;38.37;23.50;;;11.50;99.90;;;;;;5011202;28;20294;-65
2021/12/16 11:09:27;;;;;;;37.93;24.17;;;11.30;99.90;;;;;;5011358;28;20203;-65
2021/12/16 11:12:10;;;;;;;38.77;22.97;;;11.30;99.90;;;;;;5010594;28;20184;-65
2021/12/16 11:14:37;;;;;;;34.50;23.20;;;11.30;99.90;;;;;;5015071;28;20560;-64
2021/12/16 11:17:07;;;;;;;35.13;23.60;;;11.30;99.90;;;;;;5015103;28;20242;-64
2021/12/16 11:19:59;;;;;;;34.17;22.97;;;11.30;99.90;;;;;;5015067;28;20250;-65
2021/12/16 11:22:33;;;;;;;34.83;22.47;;;11.20;99.90;;;;;;5014636;28;20245;-65
2021/12/16 11:25:21;;;;;;;33.40;21.13;;;11.20;99.90;;;;;;5014984;28;20220;-65
2021/12/16 11:27:52;;;;;;;38.67;24.53;;;11.20;99.90;;;;;;4994215;28;20537;-65
2021/12/16 11:30:32;;;;;;;36.23;23.93;;;11.10;99.90;;;;;;5003311;28;20192;-64
2021/12/16 11:33:09;;;;;;;39.67;23.77;;;11.10;99.90;;;;;;5014671;28;20182;-64
2021/12/16 11:35:37;;;;;;;44.13;25.70;;;11.20;99.90;;;;;;4995189;28;20561;-65
2021/12/16 11:38:13;;;;;;;40.17;26.93;;;11.20;99.90;;;;;;4995324;28;20181;-64
2021/12/16 11:41:10;;;;;;;41.73;25.57;;;11.10;99.90;;;;;;4995371;28;20223;-65
2021/12/16 11:43:44;;;;;;;36.77;23.83;;;11.10;99.90;;;;;;4993417;28;20200;-64
2021/12/16 11:46:21;;;;;;;42.60;24.20;;;11.10;99.90;;;;;;5014594;28;20243;-65
2021/12/16 11:48:48;;;;;;;38.03;24.80;;;11.20;99.90;;;;;;5014199;28;20184;-65
2021/12/16 11:51:15;;;;;;;36.27;24.97;;;11.30;99.90;;;;;;5013420;28;20176;-65
2021/12/16 11:53:54;;;;;;;37.63;23.87;;;11.30;99.90;;;;;;5013851;28;20184;-64
2021/12/16 11:56:38;;;;;;;41.43;24.47;;;11.30;99.90;;;;;;5014541;28;20541;-64
2021/12/16 11:59:05;;;;;;;45.77;24.40;;;11.40;99.90;;;;;;5014077;28;20720;-64
2021/12/16 12:01:31;;;;;;;40.10;23.50;;;11.40;99.90;;;;;;5014038;28;20191;-63
2021/12/16 12:04:05;;;;;;;37.10;23.60;;;11.30;99.90;;;;;;5013521;28;20172;-65
2021/12/16 12:06:31;;;;;;;38.70;23.93;;;11.30;99.90;;;;;;5014206;28;20168;-64
2021/12/16 12:08:59;;;;;;;37.33;24.07;;;11.30;99.90;;;;;;5013937;28;20181;-64
2021/12/16 12:11:30;;;;;;;45.57;26.23;;;11.40;99.90;;;;;;5014104;28;20183;-65
2021/12/16 12:14:07;;;;;;;37.50;23.50;;;11.50;99.90;;;;;;5013409;28;20369;-64
2021/12/16 12:16:35;;;;;;;35.50;24.50;;;11.50;99.90;;;;;;5014124;28;20531;-64
2021/12/16 12:19:11;;;;;;;42.30;25.47;;;11.60;99.90;;;;;;5013567;28;20552;-65
2021/12/16 12:21:54;;;;;;;37.30;24.40;;;11.70;99.90;;;;;;5013804;28;20168;-65
2021/12/16 12:24:26;;;;;;;36.47;24.47;;;11.90;99.90;;;;;;5013199;28;20287;-65
2021/12/16 12:26:59;;;;;;;37.40;24.60;;;12.00;99.90;;;;;;5013668;28;20203;-65
2021/12/16 12:29:32;;;;;;;39.57;25.60;;;12.20;99.90;;;;;;4994197;28;20208;-64
2021/12/16 12:32:05;;;;;;;35.40;23.77;;;12.30;99.90;;;;;;4994115;28;20230;-65
2021/12/16 12:34:32;;;;;;;44.30;25.53;;;12.30;99.90;;;;;;4994050;28;20185;-64
2021/12/16 12:37:01;;;;;;;33.77;22.60;;;12.40;99.90;;;;;;4994025;28;20173;-64
2021/12/16 12:39:35;;;;;;;35.47;22.77;;;12.30;99.90;;;;;;5066431;22;20198;-65
2021/12/16 12:42:02;;;;;;;40.07;26.83;;;12.30;99.90;;;;;;5035422;28;20195;-65
2021/12/16 12:44:27;;;;;;;42.17;25.50;;;12.10;99.90;;;;;;5032657;28;20210;-66
2021/12/16 12:46:54;;;;;;;42.43;27.20;;;12.10;99.90;;;;;;5033539;28;20168;-66
2021/12/16 12:49:25;;;;;;;36.53;25.70;;;12.10;99.90;;;;;;5033066;28;20179;-66
2021/12/16 12:52:00;;;;;;;44.63;25.57;;;12.20;99.90;;;;;;5033306;28;20171;-66
2021/12/16 12:54:29;;;;;;;42.43;26.47;;;12.00;99.90;;;;;;5032959;28;20266;-66
2021/12/16 12:56:58;;;;;;;39.87;26.30;;;12.10;99.90;;;;;;5032922;28;20179;-66
2021/12/16 12:59:36;;;;;;;38.30;24.50;;;12.10;99.90;;;;;;5032912;28;20180;-65
2021/12/16 13:02:14;;;;;;;40.80;24.60;;;12.20;99.90;;;;;;5032639;28;20254;-66
2021/12/16 13:05:00;;;;;;;37.80;23.13;;;12.30;99.90;;;;;;5031964;28;20219;-66
2021/12/16 13:07:52;;;;;;;39.00;23.77;;;12.10;99.90;;;;;;5033120;28;20571;-65
2021/12/16 13:10:21;;;;;;;40.93;24.67;;;12.10;99.90;;;;;;5032692;28;20203;-65
2021/12/16 13:15:30;;;;;;;43.33;26.03;;;12.00;99.90;;;;;;5033095;28;20537;-64
2021/12/16 13:24:25;;;;;;;38.00;25.37;;;12.00;99.90;;;;;;5032426;28;20191;-64
2021/12/16 13:27:45;;;;;;;40.37;24.97;;;11.80;99.90;;;;;;5032602;28;20600;-64
2021/12/16 13:30:18;;;;;;;38.40;24.20;;;11.60;99.90;;;;;;5025398;28;20573;-64
2021/12/16 13:33:34;;;;;;;40.77;23.60;;;11.60;99.90;;;;;;5031738;28;20208;-64
2021/12/16 13:36:04;;;;;;;43.70;25.13;;;11.50;99.90;;;;;;5031564;28;20179;-65
2021/12/16 13:38:39;;;;;;;36.77;24.47;;;11.50;99.90;;;;;;5032043;28;20178;-65
2021/12/16 13:41:25;;;;;;;41.07;26.67;;;11.50;99.90;;;;;;5032255;28;20297;-65
2021/12/16 13:43:55;;;;;;;45.27;27.57;;;11.40;99.90;;;;;;5031606;28;20187;-65
2021/12/16 13:46:40;;;;;;;43.87;26.60;;;11.30;99.90;;;;;;5032236;28;20180;-64
2021/12/16 13:58:48;;;;;;;48.10;27.50;;;11.10;99.90;;;;;;5012319;28;20254;-67
2021/12/16 14:01:32;;;;;;;51.40;28.37;;;11.10;99.90;;;;;;5031769;28;20207;-66
2021/12/16 14:06:55;;;;;;;55.53;31.10;;;11.00;99.90;;;;;;5032017;28;20218;-66
2021/12/16 14:09:30;;;;;;;52.23;28.77;;;11.10;99.90;;;;;;5031618;28;20176;-65
2021/12/16 14:14:55;;;;;;;53.53;28.17;;;11.00;99.90;;;;;;5031472;28;20602;-66
2021/12/16 14:17:48;;;;;;;50.27;30.57;;;11.00;99.90;;;;;;5030412;28;20454;-65
2021/12/16 14:23:12;;;;;;;53.07;29.80;;;10.90;99.90;;;;;;5031505;28;20182;-64
2021/12/16 14:43:13;;;;;;;63.03;32.60;;;10.90;99.90;;;;;;5031032;28;20253;-64
2021/12/16 14:45:17;;;;;;;56.47;29.07;;;10.80;99.90;;;;;;5030495;28;20691;-64
2021/12/16 14:50:27;;;;;;;60.40;29.73;;;10.80;99.90;;;;;;5038467;28;20203;-63
2021/12/16 14:52:55;;;;;;;55.60;29.27;;;10.80;99.90;;;;;;5037437;28;20208;-63
2021/12/16 14:55:22;;;;;;;54.47;28.63;;;10.90;99.90;;;;;;5037986;28;20175;-65
2021/12/16 14:57:56;;;;;;;56.77;30.37;;;11.00;99.90;;;;;;5037708;28;20187;-65
2021/12/16 15:00:26;;;;;;;59.23;28.67;;;11.10;99.90;;;;;;5037990;28;20249;-65
2021/12/16 15:03:00;;;;;;;57.13;29.73;;;11.20;99.90;;;;;;5037117;28;20656;-65
2021/12/16 15:05:31;;;;;;;52.23;26.93;;;11.10;99.90;;;;;;5037864;28;20595;-65
2021/12/16 15:08:15;;;;;;;51.90;27.23;;;11.10;99.90;;;;;;5037845;28;20660;-64
2021/12/16 15:10:42;;;;;;;51.97;28.00;;;11.00;99.90;;;;;;5017805;28;20199;-64
2021/12/16 15:13:20;;;;;;;55.77;27.97;;;11.00;99.90;;;;;;5026300;28;20173;-65
2021/12/16 15:16:07;;;;;;;55.67;27.60;;;10.90;99.90;;;;;;5037288;28;20233;-65
2021/12/16 15:43:36;;;;;;;46.43;27.17;;;10.40;99.90;;;;;;5037223;28;20321;-64
2021/12/16 15:46:04;;;;;;;57.87;31.57;;;10.40;99.90;;;;;;5037056;28;20203;-65
2021/12/16 15:48:32;;;;;;;61.63;29.20;;;10.50;99.90;;;;;;5037142;28;20203;-65
2021/12/16 15:51:04;;;;;;;51.00;28.50;;;10.40;99.90;;;;;;5037173;28;20195;-64
2021/12/16 15:53:40;;;;;;;64.90;29.23;;;10.50;99.90;;;;;;5037002;28;20163;-67
2021/12/16 15:56:10;;;;;;;58.67;28.87;;;10.40;99.90;;;;;;5037132;28;20562;-65
2021/12/16 15:58:50;;;;;;;60.77;30.33;;;10.40;99.90;;;;;;5034783;28;20259;-65
2021/12/16 16:01:18;;;;;;;62.90;28.73;;;10.40;99.90;;;;;;5033913;28;20199;-65
2021/12/16 16:03:45;;;;;;;58.73;30.10;;;10.30;99.90;;;;;;5033393;28;20537;-64
2021/12/16 16:06:13;;;;;;;61.43;30.50;;;10.30;99.90;;;;;;5033323;28;20599;-65
2021/12/16 16:08:46;;;;;;;58.40;29.60;;;10.30;99.90;;;;;;5033700;28;20681;-64
2021/12/16 16:11:16;;;;;;;51.13;28.23;;;10.30;99.90;;;;;;5034029;28;20245;-65
2021/12/16 16:13:48;;;;;;;59.50;29.00;;;10.20;99.90;;;;;;5032790;28;20274;-65
2021/12/16 16:16:17;;;;;;;53.27;28.30;;;10.20;99.90;;;;;;5013463;28;20188;-65
2021/12/16 16:18:55;;;;;;;69.80;29.00;;;10.10;99.90;;;;;;5014634;28;20839;-64
2021/12/16 16:21:27;;;;;;;62.17;28.67;;;10.10;99.90;;;;;;5033869;28;20250;-64
2021/12/16 16:23:56;;;;;;;66.93;31.37;;;10.10;99.90;;;;;;5033897;28;20589;-65
2021/12/16 16:26:25;;;;;;;61.60;31.27;;;10.10;99.90;;;;;;5033603;28;20263;-64
2021/12/16 16:28:55;;;;;;;64.97;30.83;;;10.10;99.90;;;;;;5032833;28;20182;-65
2021/12/16 16:31:26;;;;;;;58.97;31.07;;;10.10;99.90;;;;;;5033686;28;20576;-64